sensor_id;sensor_type;location;lat;lon;timestamp;P1;durP1;ratioP1;P2;durP2;ratioP2
31660;SDS011;18267;52.234;7.444;2024-01-06T00:01:24;11.48;;;5.53;;
31660;SDS011;18267;52.234;7.444;2024-01-06T00:03:50;9.18;;;4.68;;
31660;SDS011;18267;52.234;7.444;2024-01-06T00:06:15;8.48;;;4.68;;
31660;SDS011;18267;52.234;7.444;2024-01-06T00:08:41;12.48;;;5.95;;
31660;SDS011;18267;52.234;7.444;2024-01-06T00:11:07;11.52;;;5.00;;
31660;SDS011;18267;52.234;7.444;2024-01-06T00:13:32;11.73;;;6.63;;
31660;SDS011;18267;52.234;7.444;2024-01-06T00:15:58;15.45;;;7.35;;
31660;SDS011;18267;52.234;7.444;2024-01-06T00:18:24;18.13;;;7.40;;
31660;SDS011;18267;52.234;7.444;2024-01-06T00:20:49;16.70;;;7.10;;
31660;SDS011;18267;52.234;7.444;2024-01-06T00:23:15;15.13;;;7.35;;
31660;SDS011;18267;52.234;7.444;2024-01-06T00:25:40;14.90;;;7.60;;
31660;SDS011;18267;52.234;7.444;2024-01-06T00:28:06;14.98;;;6.57;;
31660;SDS011;18267;52.234;7.444;2024-01-06T00:30:31;10.50;;;6.07;;
31660;SDS011;18267;52.234;7.444;2024-01-06T00:32:57;7.13;;;4.07;;
31660;SDS011;18267;52.234;7.444;2024-01-06T00:35:22;7.38;;;3.67;;
31660;SDS011;18267;52.234;7.444;2024-01-06T00:37:48;5.78;;;3.53;;
31660;SDS011;18267;52.234;7.444;2024-01-06T00:40:14;7.35;;;3.88;;
31660;SDS011;18267;52.234;7.444;2024-01-06T00:42:39;7.82;;;4.25;;
31660;SDS011;18267;52.234;7.444;2024-01-06T00:45:05;6.03;;;3.30;;
31660;SDS011;18267;52.234;7.444;2024-01-06T00:47:31;4.63;;;3.40;;
31660;SDS011;18267;52.234;7.444;2024-01-06T00:49:56;5.90;;;3.42;;
31660;SDS011;18267;52.234;7.444;2024-01-06T00:52:22;4.43;;;2.55;;
31660;SDS011;18267;52.234;7.444;2024-01-06T00:54:48;4.15;;;2.65;;
31660;SDS011;18267;52.234;7.444;2024-01-06T00:57:13;6.80;;;3.10;;
31660;SDS011;18267;52.234;7.444;2024-01-06T00:59:39;5.20;;;2.88;;
31660;SDS011;18267;52.234;7.444;2024-01-06T01:02:04;3.45;;;2.53;;
31660;SDS011;18267;52.234;7.444;2024-01-06T01:04:30;3.88;;;2.85;;
31660;SDS011;18267;52.234;7.444;2024-01-06T01:06:55;9.43;;;3.35;;
31660;SDS011;18267;52.234;7.444;2024-01-06T01:09:21;8.13;;;2.85;;
31660;SDS011;18267;52.234;7.444;2024-01-06T01:11:47;4.63;;;2.80;;
31660;SDS011;18267;52.234;7.444;2024-01-06T01:14:12;5.15;;;2.97;;
31660;SDS011;18267;52.234;7.444;2024-01-06T01:16:38;4.07;;;2.67;;
31660;SDS011;18267;52.234;7.444;2024-01-06T01:19:03;6.57;;;3.35;;
31660;SDS011;18267;52.234;7.444;2024-01-06T01:21:29;5.75;;;3.50;;
31660;SDS011;18267;52.234;7.444;2024-01-06T01:23:54;5.60;;;3.85;;
31660;SDS011;18267;52.234;7.444;2024-01-06T01:26:20;5.65;;;3.83;;
31660;SDS011;18267;52.234;7.444;2024-01-06T01:28:45;7.35;;;4.05;;
31660;SDS011;18267;52.234;7.444;2024-01-06T01:31:12;6.72;;;4.35;;
31660;SDS011;18267;52.234;7.444;2024-01-06T01:33:38;5.97;;;3.97;;
31660;SDS011;18267;52.234;7.444;2024-01-06T01:36:04;8.80;;;4.30;;
31660;SDS011;18267;52.234;7.444;2024-01-06T01:38:29;6.72;;;3.88;;
31660;SDS011;18267;52.234;7.444;2024-01-06T01:40:55;9.38;;;4.63;;
31660;SDS011;18267;52.234;7.444;2024-01-06T01:43:21;7.57;;;4.22;;
31660;SDS011;18267;52.234;7.444;2024-01-06T01:45:48;8.32;;;5.07;;
31660;SDS011;18267;52.234;7.444;2024-01-06T01:48:18;6.22;;;4.28;;
31660;SDS011;18267;52.234;7.444;2024-01-06T01:50:47;7.32;;;4.90;;
31660;SDS011;18267;52.234;7.444;2024-01-06T01:53:13;8.80;;;4.40;;
31660;SDS011;18267;52.234;7.444;2024-01-06T01:55:40;7.90;;;4.97;;
31660;SDS011;18267;52.234;7.444;2024-01-06T01:58:07;10.50;;;4.90;;
31660;SDS011;18267;52.234;7.444;2024-01-06T02:00:34;7.75;;;4.93;;
31660;SDS011;18267;52.234;7.444;2024-01-06T02:02:59;6.93;;;4.70;;
31660;SDS011;18267;52.234;7.444;2024-01-06T02:05:28;9.15;;;4.85;;
31660;SDS011;18267;52.234;7.444;2024-01-06T02:07:53;11.00;;;6.47;;
31660;SDS011;18267;52.234;7.444;2024-01-06T02:10:19;10.70;;;6.63;;
31660;SDS011;18267;52.234;7.444;2024-01-06T02:12:44;13.32;;;6.95;;
31660;SDS011;18267;52.234;7.444;2024-01-06T02:15:10;13.57;;;7.80;;
31660;SDS011;18267;52.234;7.444;2024-01-06T02:17:35;17.65;;;10.05;;
31660;SDS011;18267;52.234;7.444;2024-01-06T02:20:01;15.73;;;8.32;;
31660;SDS011;18267;52.234;7.444;2024-01-06T02:22:26;19.70;;;8.50;;
31660;SDS011;18267;52.234;7.444;2024-01-06T02:24:52;17.30;;;7.60;;
31660;SDS011;18267;52.234;7.444;2024-01-06T02:27:18;16.27;;;7.30;;
31660;SDS011;18267;52.234;7.444;2024-01-06T02:29:44;17.80;;;7.38;;
31660;SDS011;18267;52.234;7.444;2024-01-06T02:32:09;14.88;;;6.97;;
31660;SDS011;18267;52.234;7.444;2024-01-06T02:34:35;12.27;;;6.18;;
31660;SDS011;18267;52.234;7.444;2024-01-06T02:37:03;14.57;;;7.18;;
31660;SDS011;18267;52.234;7.444;2024-01-06T02:39:28;14.55;;;6.95;;
31660;SDS011;18267;52.234;7.444;2024-01-06T02:41:54;14.68;;;7.10;;
31660;SDS011;18267;52.234;7.444;2024-01-06T02:44:20;11.82;;;6.68;;
31660;SDS011;18267;52.234;7.444;2024-01-06T02:46:45;15.18;;;6.93;;
31660;SDS011;18267;52.234;7.444;2024-01-06T02:49:11;14.77;;;7.35;;
31660;SDS011;18267;52.234;7.444;2024-01-06T02:51:36;12.40;;;6.38;;
31660;SDS011;18267;52.234;7.444;2024-01-06T02:54:02;13.15;;;6.60;;
31660;SDS011;18267;52.234;7.444;2024-01-06T02:56:27;10.95;;;6.07;;
31660;SDS011;18267;52.234;7.444;2024-01-06T02:58:53;14.40;;;6.78;;
31660;SDS011;18267;52.234;7.444;2024-01-06T03:01:18;15.27;;;6.78;;
31660;SDS011;18267;52.234;7.444;2024-01-06T03:03:44;12.25;;;6.20;;
31660;SDS011;18267;52.234;7.444;2024-01-06T03:06:09;12.73;;;6.90;;
31660;SDS011;18267;52.234;7.444;2024-01-06T03:08:35;15.63;;;5.68;;
31660;SDS011;18267;52.234;7.444;2024-01-06T03:11:01;12.55;;;6.20;;
31660;SDS011;18267;52.234;7.444;2024-01-06T03:13:28;12.40;;;5.15;;
31660;SDS011;18267;52.234;7.444;2024-01-06T03:15:54;13.88;;;6.35;;
31660;SDS011;18267;52.234;7.444;2024-01-06T03:18:19;13.40;;;6.28;;
31660;SDS011;18267;52.234;7.444;2024-01-06T03:20:45;9.55;;;5.07;;
31660;SDS011;18267;52.234;7.444;2024-01-06T03:23:10;12.20;;;5.32;;
31660;SDS011;18267;52.234;7.444;2024-01-06T03:25:36;14.82;;;5.90;;
31660;SDS011;18267;52.234;7.444;2024-01-06T03:28:02;14.05;;;5.40;;
31660;SDS011;18267;52.234;7.444;2024-01-06T03:30:27;9.00;;;4.95;;
31660;SDS011;18267;52.234;7.444;2024-01-06T03:32:53;11.50;;;4.50;;
31660;SDS011;18267;52.234;7.444;2024-01-06T03:35:18;10.63;;;4.88;;
31660;SDS011;18267;52.234;7.444;2024-01-06T03:37:44;13.75;;;5.38;;
31660;SDS011;18267;52.234;7.444;2024-01-06T03:40:10;9.65;;;4.88;;
31660;SDS011;18267;52.234;7.444;2024-01-06T03:42:36;8.25;;;4.32;;
31660;SDS011;18267;52.234;7.444;2024-01-06T03:45:02;8.57;;;4.13;;
31660;SDS011;18267;52.234;7.444;2024-01-06T03:47:28;8.98;;;4.30;;
31660;SDS011;18267;52.234;7.444;2024-01-06T03:49:54;14.23;;;4.50;;
31660;SDS011;18267;52.234;7.444;2024-01-06T03:52:19;6.38;;;3.65;;
31660;SDS011;18267;52.234;7.444;2024-01-06T03:54:45;8.35;;;3.92;;
31660;SDS011;18267;52.234;7.444;2024-01-06T03:57:10;10.93;;;4.20;;
31660;SDS011;18267;52.234;7.444;2024-01-06T03:59:36;6.82;;;4.00;;
31660;SDS011;18267;52.234;7.444;2024-01-06T04:02:01;8.00;;;3.70;;
31660;SDS011;18267;52.234;7.444;2024-01-06T04:04:27;12.00;;;5.10;;
31660;SDS011;18267;52.234;7.444;2024-01-06T04:06:52;7.85;;;3.95;;
31660;SDS011;18267;52.234;7.444;2024-01-06T04:09:18;11.55;;;4.63;;
31660;SDS011;18267;52.234;7.444;2024-01-06T04:11:43;10.30;;;4.22;;
31660;SDS011;18267;52.234;7.444;2024-01-06T04:14:09;10.23;;;4.53;;
31660;SDS011;18267;52.234;7.444;2024-01-06T04:16:35;12.10;;;4.25;;
31660;SDS011;18267;52.234;7.444;2024-01-06T04:19:00;9.75;;;4.75;;
31660;SDS011;18267;52.234;7.444;2024-01-06T04:21:26;12.02;;;5.22;;
31660;SDS011;18267;52.234;7.444;2024-01-06T04:23:51;13.30;;;5.53;;
31660;SDS011;18267;52.234;7.444;2024-01-06T04:26:17;13.07;;;5.38;;
31660;SDS011;18267;52.234;7.444;2024-01-06T04:28:42;9.50;;;5.25;;
31660;SDS011;18267;52.234;7.444;2024-01-06T04:31:08;15.95;;;5.93;;
31660;SDS011;18267;52.234;7.444;2024-01-06T04:33:33;11.68;;;6.03;;
31660;SDS011;18267;52.234;7.444;2024-01-06T04:35:59;15.63;;;5.55;;
31660;SDS011;18267;52.234;7.444;2024-01-06T04:38:26;11.88;;;6.10;;
31660;SDS011;18267;52.234;7.444;2024-01-06T04:40:52;15.23;;;6.90;;
31660;SDS011;18267;52.234;7.444;2024-01-06T04:43:18;13.43;;;6.45;;
31660;SDS011;18267;52.234;7.444;2024-01-06T04:45:43;12.05;;;6.13;;
31660;SDS011;18267;52.234;7.444;2024-01-06T04:48:09;10.82;;;5.57;;
31660;SDS011;18267;52.234;7.444;2024-01-06T04:50:34;12.52;;;5.70;;
31660;SDS011;18267;52.234;7.444;2024-01-06T04:53:00;12.05;;;5.35;;
31660;SDS011;18267;52.234;7.444;2024-01-06T04:55:25;8.80;;;4.85;;
31660;SDS011;18267;52.234;7.444;2024-01-06T04:57:51;11.65;;;6.28;;
31660;SDS011;18267;52.234;7.444;2024-01-06T05:00:16;14.48;;;6.95;;
31660;SDS011;18267;52.234;7.444;2024-01-06T05:02:42;11.07;;;6.18;;
31660;SDS011;18267;52.234;7.444;2024-01-06T05:05:08;13.02;;;6.50;;
31660;SDS011;18267;52.234;7.444;2024-01-06T05:07:33;13.45;;;6.10;;
31660;SDS011;18267;52.234;7.444;2024-01-06T05:09:59;19.90;;;8.18;;
31660;SDS011;18267;52.234;7.444;2024-01-06T05:12:24;11.70;;;5.85;;
31660;SDS011;18267;52.234;7.444;2024-01-06T05:14:50;12.70;;;5.55;;
31660;SDS011;18267;52.234;7.444;2024-01-06T05:17:16;19.15;;;7.85;;
31660;SDS011;18267;52.234;7.444;2024-01-06T05:19:41;13.93;;;7.32;;
31660;SDS011;18267;52.234;7.444;2024-01-06T05:22:07;15.20;;;6.88;;
31660;SDS011;18267;52.234;7.444;2024-01-06T05:24:32;14.27;;;7.25;;
31660;SDS011;18267;52.234;7.444;2024-01-06T05:26:58;18.58;;;7.53;;
31660;SDS011;18267;52.234;7.444;2024-01-06T05:29:23;16.13;;;7.53;;
31660;SDS011;18267;52.234;7.444;2024-01-06T05:31:51;19.50;;;7.57;;
31660;SDS011;18267;52.234;7.444;2024-01-06T05:34:16;17.58;;;7.00;;
31660;SDS011;18267;52.234;7.444;2024-01-06T05:36:42;12.75;;;6.30;;
31660;SDS011;18267;52.234;7.444;2024-01-06T05:39:08;17.05;;;8.02;;
31660;SDS011;18267;52.234;7.444;2024-01-06T05:41:39;15.80;;;6.35;;
31660;SDS011;18267;52.234;7.444;2024-01-06T05:44:05;15.57;;;6.72;;
31660;SDS011;18267;52.234;7.444;2024-01-06T05:46:32;15.82;;;6.88;;
31660;SDS011;18267;52.234;7.444;2024-01-06T05:48:58;16.13;;;7.18;;
31660;SDS011;18267;52.234;7.444;2024-01-06T05:51:24;21.08;;;7.82;;
31660;SDS011;18267;52.234;7.444;2024-01-06T05:53:50;19.67;;;7.80;;
31660;SDS011;18267;52.234;7.444;2024-01-06T05:56:25;23.05;;;9.98;;
31660;SDS011;18267;52.234;7.444;2024-01-06T05:58:51;17.60;;;7.80;;
31660;SDS011;18267;52.234;7.444;2024-01-06T06:01:17;21.27;;;8.18;;
31660;SDS011;18267;52.234;7.444;2024-01-06T06:03:43;21.08;;;7.85;;
31660;SDS011;18267;52.234;7.444;2024-01-06T06:06:09;18.02;;;8.70;;
31660;SDS011;18267;52.234;7.444;2024-01-06T06:08:34;16.48;;;8.30;;
31660;SDS011;18267;52.234;7.444;2024-01-06T06:11:00;15.90;;;7.28;;
31660;SDS011;18267;52.234;7.444;2024-01-06T06:16:08;17.42;;;7.57;;
31660;SDS011;18267;52.234;7.444;2024-01-06T06:18:34;15.07;;;6.25;;
31660;SDS011;18267;52.234;7.444;2024-01-06T06:21:00;13.07;;;6.70;;
31660;SDS011;18267;52.234;7.444;2024-01-06T06:23:28;12.50;;;6.20;;
31660;SDS011;18267;52.234;7.444;2024-01-06T06:25:54;16.40;;;6.65;;
31660;SDS011;18267;52.234;7.444;2024-01-06T06:28:19;15.50;;;6.65;;
31660;SDS011;18267;52.234;7.444;2024-01-06T06:30:45;16.52;;;6.80;;
31660;SDS011;18267;52.234;7.444;2024-01-06T06:33:10;11.52;;;5.15;;
31660;SDS011;18267;52.234;7.444;2024-01-06T06:35:36;12.02;;;5.25;;
31660;SDS011;18267;52.234;7.444;2024-01-06T06:38:02;16.75;;;6.93;;
31660;SDS011;18267;52.234;7.444;2024-01-06T06:40:28;14.65;;;6.78;;
31660;SDS011;18267;52.234;7.444;2024-01-06T06:42:53;15.15;;;6.57;;
31660;SDS011;18267;52.234;7.444;2024-01-06T06:45:19;15.27;;;6.55;;
31660;SDS011;18267;52.234;7.444;2024-01-06T06:47:47;18.58;;;6.90;;
31660;SDS011;18267;52.234;7.444;2024-01-06T06:50:15;17.95;;;7.20;;
31660;SDS011;18267;52.234;7.444;2024-01-06T06:52:41;16.27;;;8.25;;
31660;SDS011;18267;52.234;7.444;2024-01-06T06:55:07;18.63;;;9.02;;
31660;SDS011;18267;52.234;7.444;2024-01-06T06:57:33;16.33;;;6.88;;
31660;SDS011;18267;52.234;7.444;2024-01-06T06:59:58;18.60;;;7.57;;
31660;SDS011;18267;52.234;7.444;2024-01-06T07:02:25;13.18;;;6.72;;
31660;SDS011;18267;52.234;7.444;2024-01-06T07:04:51;13.48;;;5.85;;
31660;SDS011;18267;52.234;7.444;2024-01-06T07:07:16;10.85;;;5.15;;
31660;SDS011;18267;52.234;7.444;2024-01-06T07:09:42;13.77;;;4.90;;
31660;SDS011;18267;52.234;7.444;2024-01-06T07:12:07;14.38;;;6.53;;
31660;SDS011;18267;52.234;7.444;2024-01-06T07:14:33;9.98;;;4.53;;
31660;SDS011;18267;52.234;7.444;2024-01-06T07:16:59;11.43;;;6.05;;
31660;SDS011;18267;52.234;7.444;2024-01-06T07:19:24;11.77;;;5.78;;
31660;SDS011;18267;52.234;7.444;2024-01-06T07:21:50;12.32;;;5.32;;
31660;SDS011;18267;52.234;7.444;2024-01-06T07:24:15;15.52;;;5.88;;
31660;SDS011;18267;52.234;7.444;2024-01-06T07:26:41;12.35;;;6.20;;
31660;SDS011;18267;52.234;7.444;2024-01-06T07:29:07;15.38;;;6.65;;
31660;SDS011;18267;52.234;7.444;2024-01-06T07:31:33;13.43;;;6.05;;
31660;SDS011;18267;52.234;7.444;2024-01-06T07:33:59;11.52;;;5.47;;
31660;SDS011;18267;52.234;7.444;2024-01-06T07:36:24;13.90;;;5.68;;
31660;SDS011;18267;52.234;7.444;2024-01-06T07:38:50;16.85;;;6.15;;
31660;SDS011;18267;52.234;7.444;2024-01-06T07:41:17;13.48;;;6.40;;
31660;SDS011;18267;52.234;7.444;2024-01-06T07:43:42;10.85;;;5.10;;
31660;SDS011;18267;52.234;7.444;2024-01-06T07:46:08;10.25;;;5.07;;
31660;SDS011;18267;52.234;7.444;2024-01-06T07:48:34;14.30;;;4.88;;
31660;SDS011;18267;52.234;7.444;2024-01-06T07:51:00;9.32;;;4.60;;
31660;SDS011;18267;52.234;7.444;2024-01-06T07:53:28;11.35;;;5.03;;
31660;SDS011;18267;52.234;7.444;2024-01-06T07:55:54;9.70;;;5.03;;
31660;SDS011;18267;52.234;7.444;2024-01-06T07:58:19;12.75;;;6.00;;
31660;SDS011;18267;52.234;7.444;2024-01-06T08:00:46;10.27;;;5.03;;
31660;SDS011;18267;52.234;7.444;2024-01-06T08:03:12;9.00;;;5.18;;
31660;SDS011;18267;52.234;7.444;2024-01-06T08:05:38;10.90;;;5.30;;
31660;SDS011;18267;52.234;7.444;2024-01-06T08:08:04;12.85;;;6.30;;
31660;SDS011;18267;52.234;7.444;2024-01-06T08:10:30;14.32;;;6.05;;
31660;SDS011;18267;52.234;7.444;2024-01-06T08:12:56;13.10;;;5.82;;
31660;SDS011;18267;52.234;7.444;2024-01-06T08:15:22;13.80;;;6.10;;
31660;SDS011;18267;52.234;7.444;2024-01-06T08:17:47;16.45;;;6.57;;
31660;SDS011;18267;52.234;7.444;2024-01-06T08:20:13;12.02;;;5.18;;
31660;SDS011;18267;52.234;7.444;2024-01-06T08:22:38;13.52;;;5.25;;
31660;SDS011;18267;52.234;7.444;2024-01-06T08:25:04;17.17;;;7.00;;
31660;SDS011;18267;52.234;7.444;2024-01-06T08:27:33;13.70;;;5.55;;
31660;SDS011;18267;52.234;7.444;2024-01-06T08:29:59;14.13;;;7.05;;
31660;SDS011;18267;52.234;7.444;2024-01-06T08:32:24;13.82;;;6.82;;
31660;SDS011;18267;52.234;7.444;2024-01-06T08:34:50;14.52;;;6.82;;
31660;SDS011;18267;52.234;7.444;2024-01-06T08:37:15;15.30;;;7.18;;
31660;SDS011;18267;52.234;7.444;2024-01-06T08:39:41;16.17;;;7.07;;
31660;SDS011;18267;52.234;7.444;2024-01-06T08:42:07;20.08;;;7.63;;
31660;SDS011;18267;52.234;7.444;2024-01-06T08:44:32;14.20;;;6.82;;
31660;SDS011;18267;52.234;7.444;2024-01-06T08:46:58;14.98;;;6.72;;
31660;SDS011;18267;52.234;7.444;2024-01-06T08:49:23;15.95;;;7.65;;
31660;SDS011;18267;52.234;7.444;2024-01-06T08:51:49;12.45;;;6.47;;
31660;SDS011;18267;52.234;7.444;2024-01-06T08:54:15;16.52;;;7.43;;
31660;SDS011;18267;52.234;7.444;2024-01-06T08:56:40;17.42;;;7.50;;
31660;SDS011;18267;52.234;7.444;2024-01-06T08:59:06;14.60;;;6.88;;
31660;SDS011;18267;52.234;7.444;2024-01-06T09:01:32;13.50;;;6.47;;
31660;SDS011;18267;52.234;7.444;2024-01-06T09:03:59;15.85;;;8.05;;
31660;SDS011;18267;52.234;7.444;2024-01-06T09:06:24;16.25;;;7.65;;
31660;SDS011;18267;52.234;7.444;2024-01-06T09:08:50;16.70;;;7.65;;
31660;SDS011;18267;52.234;7.444;2024-01-06T09:11:15;17.65;;;7.60;;
31660;SDS011;18267;52.234;7.444;2024-01-06T09:13:41;14.00;;;6.85;;
31660;SDS011;18267;52.234;7.444;2024-01-06T09:16:06;18.33;;;7.68;;
31660;SDS011;18267;52.234;7.444;2024-01-06T09:18:32;14.52;;;6.90;;
31660;SDS011;18267;52.234;7.444;2024-01-06T09:20:58;13.85;;;6.28;;
31660;SDS011;18267;52.234;7.444;2024-01-06T09:23:23;11.40;;;5.60;;
31660;SDS011;18267;52.234;7.444;2024-01-06T09:25:49;9.98;;;5.50;;
31660;SDS011;18267;52.234;7.444;2024-01-06T09:28:16;15.20;;;5.95;;
31660;SDS011;18267;52.234;7.444;2024-01-06T09:30:42;11.30;;;5.65;;
31660;SDS011;18267;52.234;7.444;2024-01-06T09:33:07;10.93;;;4.85;;
31660;SDS011;18267;52.234;7.444;2024-01-06T09:35:33;11.48;;;5.60;;
31660;SDS011;18267;52.234;7.444;2024-01-06T09:37:59;10.32;;;5.70;;
31660;SDS011;18267;52.234;7.444;2024-01-06T09:40:26;13.05;;;6.88;;
31660;SDS011;18267;52.234;7.444;2024-01-06T09:42:54;14.35;;;6.43;;
31660;SDS011;18267;52.234;7.444;2024-01-06T09:45:20;18.08;;;7.25;;
31660;SDS011;18267;52.234;7.444;2024-01-06T09:47:49;10.30;;;5.60;;
31660;SDS011;18267;52.234;7.444;2024-01-06T09:50:19;10.50;;;5.20;;
31660;SDS011;18267;52.234;7.444;2024-01-06T09:52:45;9.85;;;5.18;;
31660;SDS011;18267;52.234;7.444;2024-01-06T09:55:19;10.63;;;4.68;;
31660;SDS011;18267;52.234;7.444;2024-01-06T09:57:53;9.90;;;5.68;;
31660;SDS011;18267;52.234;7.444;2024-01-06T10:00:20;12.65;;;4.88;;
31660;SDS011;18267;52.234;7.444;2024-01-06T10:02:47;10.43;;;5.32;;
31660;SDS011;18267;52.234;7.444;2024-01-06T10:05:16;13.80;;;6.10;;
31660;SDS011;18267;52.234;7.444;2024-01-06T10:07:43;11.70;;;6.20;;
31660;SDS011;18267;52.234;7.444;2024-01-06T10:10:09;11.07;;;5.70;;
31660;SDS011;18267;52.234;7.444;2024-01-06T10:12:38;10.13;;;5.60;;
31660;SDS011;18267;52.234;7.444;2024-01-06T10:15:05;9.30;;;4.95;;
31660;SDS011;18267;52.234;7.444;2024-01-06T10:17:40;13.88;;;5.38;;
31660;SDS011;18267;52.234;7.444;2024-01-06T10:20:10;11.05;;;5.93;;
31660;SDS011;18267;52.234;7.444;2024-01-06T10:22:37;10.55;;;6.13;;
31660;SDS011;18267;52.234;7.444;2024-01-06T10:25:06;9.63;;;5.57;;
31660;SDS011;18267;52.234;7.444;2024-01-06T10:27:39;11.98;;;5.90;;
31660;SDS011;18267;52.234;7.444;2024-01-06T10:30:06;12.68;;;5.88;;
31660;SDS011;18267;52.234;7.444;2024-01-06T10:32:33;11.95;;;6.07;;
31660;SDS011;18267;52.234;7.444;2024-01-06T10:35:01;12.35;;;5.75;;
31660;SDS011;18267;52.234;7.444;2024-01-06T10:37:28;11.23;;;5.88;;
31660;SDS011;18267;52.234;7.444;2024-01-06T10:40:14;13.05;;;6.50;;
31660;SDS011;18267;52.234;7.444;2024-01-06T10:42:43;11.23;;;5.45;;
31660;SDS011;18267;52.234;7.444;2024-01-06T10:45:13;12.25;;;5.70;;
31660;SDS011;18267;52.234;7.444;2024-01-06T10:47:43;10.75;;;6.20;;
31660;SDS011;18267;52.234;7.444;2024-01-06T10:50:09;12.77;;;6.30;;
31660;SDS011;18267;52.234;7.444;2024-01-06T10:52:35;8.57;;;5.15;;
31660;SDS011;18267;52.234;7.444;2024-01-06T10:55:03;13.18;;;5.03;;
31660;SDS011;18267;52.234;7.444;2024-01-06T10:57:30;12.38;;;4.72;;
31660;SDS011;18267;52.234;7.444;2024-01-06T10:59:57;11.10;;;5.32;;
31660;SDS011;18267;52.234;7.444;2024-01-06T11:02:24;10.80;;;5.30;;
31660;SDS011;18267;52.234;7.444;2024-01-06T11:04:50;9.68;;;4.53;;
31660;SDS011;18267;52.234;7.444;2024-01-06T11:07:19;11.85;;;5.07;;
31660;SDS011;18267;52.234;7.444;2024-01-06T11:09:55;11.68;;;4.88;;
31660;SDS011;18267;52.234;7.444;2024-01-06T11:12:27;12.93;;;4.88;;
31660;SDS011;18267;52.234;7.444;2024-01-06T11:14:53;19.02;;;5.55;;
31660;SDS011;18267;52.234;7.444;2024-01-06T11:20:23;9.82;;;4.45;;
31660;SDS011;18267;52.234;7.444;2024-01-06T11:22:50;12.10;;;5.65;;
31660;SDS011;18267;52.234;7.444;2024-01-06T11:25:17;11.43;;;4.88;;
31660;SDS011;18267;52.234;7.444;2024-01-06T11:27:50;22.30;;;8.45;;
31660;SDS011;18267;52.234;7.444;2024-01-06T11:30:20;51.50;;;18.13;;
31660;SDS011;18267;52.234;7.444;2024-01-06T11:32:53;18.20;;;8.00;;
31660;SDS011;18267;52.234;7.444;2024-01-06T11:35:21;16.20;;;7.18;;
31660;SDS011;18267;52.234;7.444;2024-01-06T11:40:16;9.07;;;4.65;;
31660;SDS011;18267;52.234;7.444;2024-01-06T11:45:36;10.77;;;4.10;;
31660;SDS011;18267;52.234;7.444;2024-01-06T11:48:05;5.75;;;3.92;;
31660;SDS011;18267;52.234;7.444;2024-01-06T11:50:33;9.35;;;4.05;;
31660;SDS011;18267;52.234;7.444;2024-01-06T11:53:01;5.63;;;3.33;;
31660;SDS011;18267;52.234;7.444;2024-01-06T11:55:27;11.02;;;4.68;;
31660;SDS011;18267;52.234;7.444;2024-01-06T11:57:54;6.30;;;3.95;;
31660;SDS011;18267;52.234;7.444;2024-01-06T12:00:21;13.70;;;6.20;;
31660;SDS011;18267;52.234;7.444;2024-01-06T12:02:47;9.75;;;3.72;;
31660;SDS011;18267;52.234;7.444;2024-01-06T12:05:14;11.02;;;4.63;;
31660;SDS011;18267;52.234;7.444;2024-01-06T12:07:41;11.98;;;5.70;;
31660;SDS011;18267;52.234;7.444;2024-01-06T12:10:10;10.98;;;5.10;;
31660;SDS011;18267;52.234;7.444;2024-01-06T12:12:37;9.82;;;4.50;;
31660;SDS011;18267;52.234;7.444;2024-01-06T12:15:02;11.40;;;3.88;;
31660;SDS011;18267;52.234;7.444;2024-01-06T12:17:29;9.85;;;4.85;;
31660;SDS011;18267;52.234;7.444;2024-01-06T12:19:55;10.38;;;4.95;;
31660;SDS011;18267;52.234;7.444;2024-01-06T12:22:21;10.82;;;5.03;;
31660;SDS011;18267;52.234;7.444;2024-01-06T12:24:49;12.88;;;5.30;;
31660;SDS011;18267;52.234;7.444;2024-01-06T12:27:16;12.55;;;4.93;;
31660;SDS011;18267;52.234;7.444;2024-01-06T12:29:42;10.43;;;4.82;;
31660;SDS011;18267;52.234;7.444;2024-01-06T12:32:11;10.02;;;4.80;;
31660;SDS011;18267;52.234;7.444;2024-01-06T12:34:38;14.48;;;6.30;;
31660;SDS011;18267;52.234;7.444;2024-01-06T12:37:04;12.10;;;5.88;;
31660;SDS011;18267;52.234;7.444;2024-01-06T12:39:32;13.77;;;6.43;;
31660;SDS011;18267;52.234;7.444;2024-01-06T12:41:58;14.55;;;5.75;;
31660;SDS011;18267;52.234;7.444;2024-01-06T12:44:26;15.45;;;7.22;;
31660;SDS011;18267;52.234;7.444;2024-01-06T12:46:52;13.60;;;6.35;;
31660;SDS011;18267;52.234;7.444;2024-01-06T12:49:19;15.95;;;6.22;;
31660;SDS011;18267;52.234;7.444;2024-01-06T12:51:44;11.30;;;6.32;;
31660;SDS011;18267;52.234;7.444;2024-01-06T12:54:10;12.35;;;6.22;;
31660;SDS011;18267;52.234;7.444;2024-01-06T12:56:35;14.23;;;7.25;;
31660;SDS011;18267;52.234;7.444;2024-01-06T12:59:01;19.40;;;7.82;;
31660;SDS011;18267;52.234;7.444;2024-01-06T13:01:27;19.30;;;7.82;;
31660;SDS011;18267;52.234;7.444;2024-01-06T13:03:52;17.35;;;7.43;;
31660;SDS011;18267;52.234;7.444;2024-01-06T13:06:19;15.35;;;7.82;;
31660;SDS011;18267;52.234;7.444;2024-01-06T13:08:45;18.60;;;8.90;;
31660;SDS011;18267;52.234;7.444;2024-01-06T13:11:10;20.45;;;9.40;;
31660;SDS011;18267;52.234;7.444;2024-01-06T13:13:36;16.75;;;7.65;;
31660;SDS011;18267;52.234;7.444;2024-01-06T13:16:02;17.40;;;8.07;;
31660;SDS011;18267;52.234;7.444;2024-01-06T13:18:30;18.50;;;8.80;;
31660;SDS011;18267;52.234;7.444;2024-01-06T13:20:55;20.88;;;9.23;;
31660;SDS011;18267;52.234;7.444;2024-01-06T13:23:21;26.95;;;10.27;;
31660;SDS011;18267;52.234;7.444;2024-01-06T13:25:46;22.17;;;9.35;;
31660;SDS011;18267;52.234;7.444;2024-01-06T13:28:12;26.25;;;10.10;;
31660;SDS011;18267;52.234;7.444;2024-01-06T13:30:37;27.08;;;10.75;;
31660;SDS011;18267;52.234;7.444;2024-01-06T13:33:05;26.95;;;10.57;;
31660;SDS011;18267;52.234;7.444;2024-01-06T13:35:30;23.95;;;10.40;;
31660;SDS011;18267;52.234;7.444;2024-01-06T13:37:56;26.95;;;11.43;;
31660;SDS011;18267;52.234;7.444;2024-01-06T13:40:22;25.88;;;10.40;;
31660;SDS011;18267;52.234;7.444;2024-01-06T13:42:49;23.98;;;10.90;;
31660;SDS011;18267;52.234;7.444;2024-01-06T13:45:19;27.23;;;10.90;;
31660;SDS011;18267;52.234;7.444;2024-01-06T13:47:44;29.27;;;11.95;;
31660;SDS011;18267;52.234;7.444;2024-01-06T13:50:16;31.63;;;11.57;;
31660;SDS011;18267;52.234;7.444;2024-01-06T13:52:43;28.55;;;11.38;;
31660;SDS011;18267;52.234;7.444;2024-01-06T13:55:10;32.35;;;12.95;;
31660;SDS011;18267;52.234;7.444;2024-01-06T13:57:37;28.63;;;10.43;;
31660;SDS011;18267;52.234;7.444;2024-01-06T14:00:08;30.55;;;11.85;;
31660;SDS011;18267;52.234;7.444;2024-01-06T14:02:35;25.30;;;11.27;;
31660;SDS011;18267;52.234;7.444;2024-01-06T14:05:04;34.38;;;12.55;;
31660;SDS011;18267;52.234;7.444;2024-01-06T14:07:33;30.83;;;11.90;;
31660;SDS011;18267;52.234;7.444;2024-01-06T14:10:03;29.65;;;13.40;;
31660;SDS011;18267;52.234;7.444;2024-01-06T14:12:31;25.90;;;11.25;;
31660;SDS011;18267;52.234;7.444;2024-01-06T14:14:56;22.13;;;9.18;;
31660;SDS011;18267;52.234;7.444;2024-01-06T14:17:23;26.02;;;11.32;;
31660;SDS011;18267;52.234;7.444;2024-01-06T14:19:51;28.65;;;10.45;;
31660;SDS011;18267;52.234;7.444;2024-01-06T14:22:17;33.58;;;11.48;;
31660;SDS011;18267;52.234;7.444;2024-01-06T14:24:43;29.05;;;11.40;;
31660;SDS011;18267;52.234;7.444;2024-01-06T14:27:08;32.35;;;12.82;;
31660;SDS011;18267;52.234;7.444;2024-01-06T14:29:34;30.25;;;12.70;;
31660;SDS011;18267;52.234;7.444;2024-01-06T14:32:01;28.55;;;11.32;;
31660;SDS011;18267;52.234;7.444;2024-01-06T14:34:27;29.75;;;13.38;;
31660;SDS011;18267;52.234;7.444;2024-01-06T14:36:52;25.73;;;10.23;;
31660;SDS011;18267;52.234;7.444;2024-01-06T14:39:18;28.05;;;11.38;;
31660;SDS011;18267;52.234;7.444;2024-01-06T14:41:47;32.53;;;12.77;;